createdAt,value
2022-08-05T00:00:31.703Z,27.87
2022-08-05T00:01:35.642Z,27.87
2022-08-05T00:02:31.738Z,27.89
2022-08-05T00:03:31.729Z,27.87
2022-08-05T00:04:31.731Z,27.86
2022-08-05T00:06:05.553Z,27.78
2022-08-05T00:06:33.166Z,27.74
2022-08-05T00:08:01.071Z,27.80
2022-08-05T00:08:35.005Z,27.74
2022-08-05T00:09:31.776Z,27.77
2022-08-05T00:10:31.766Z,27.78
2022-08-05T00:11:35.152Z,27.71
2022-08-05T00:12:31.783Z,27.75
2022-08-05T00:13:38.238Z,27.71
2022-08-05T00:14:31.868Z,27.65
2022-08-05T00:16:52.585Z,27.55
2022-08-05T00:17:47.448Z,27.60
2022-08-05T00:20:02.584Z,27.58
2022-08-05T00:20:51.451Z,27.55
2022-08-05T00:22:58.493Z,27.54
2022-08-05T00:24:10.622Z,27.44
2022-08-05T00:25:59.477Z,27.37
2022-08-05T00:26:59.474Z,27.45
2022-08-05T00:29:03.503Z,27.47
2022-08-05T00:30:03.571Z,27.48
2022-08-05T00:32:13.039Z,27.35
2022-08-05T00:33:07.510Z,27.32
2022-08-05T00:35:11.529Z,27.35
2022-08-05T00:36:16.400Z,27.29
2022-08-05T00:38:15.514Z,27.26
2022-08-05T00:39:15.597Z,27.20
2022-08-05T00:41:19.555Z,27.30
2022-08-05T00:42:31.596Z,27.22
2022-08-05T00:44:30.755Z,27.21
2022-08-05T00:45:28.413Z,27.21
2022-08-05T00:47:16.551Z,27.20
2022-08-05T00:48:16.497Z,27.17
2022-08-05T00:50:20.950Z,27.18
2022-08-05T00:51:51.481Z,27.15
2022-08-05T00:54:01.063Z,27.12
2022-08-05T00:54:28.088Z,27.08
2022-08-05T00:56:17.494Z,27.05
2022-08-05T00:57:17.449Z,27.07
2022-08-05T00:59:21.474Z,27.02
2022-08-05T01:00:22.015Z,27.02
2022-08-05T01:02:25.470Z,27.05
2022-08-05T01:03:25.481Z,27.03
2022-08-05T01:05:29.489Z,26.99
2022-08-05T01:06:32.539Z,27.07
2022-08-05T01:08:43.038Z,26.96
2022-08-05T01:09:33.504Z,26.95
2022-08-05T01:10:33.511Z,26.90
2022-08-05T01:11:37.293Z,26.81
2022-08-05T01:12:33.532Z,26.81
2022-08-05T01:13:58.684Z,26.81
2022-08-05T01:14:33.544Z,26.83
2022-08-05T01:15:36.471Z,26.83
2022-08-05T01:16:33.552Z,26.80
2022-08-05T01:17:40.325Z,26.74
2022-08-05T01:18:33.610Z,26.77
2022-08-05T01:19:55.992Z,26.81
2022-08-05T01:20:40.447Z,26.78
2022-08-05T01:21:38.158Z,26.81
2022-08-05T01:22:34.097Z,26.75
2022-08-05T01:23:34.954Z,26.74
2022-08-05T01:24:33.591Z,26.70
2022-08-05T01:25:39.478Z,26.73
2022-08-05T01:26:33.602Z,26.71
2022-08-05T01:27:33.650Z,26.77
2022-08-05T01:28:33.615Z,26.70
2022-08-05T01:29:34.930Z,26.66
2022-08-05T01:30:35.141Z,26.70
2022-08-05T01:31:33.640Z,26.75
2022-08-05T01:32:33.632Z,26.74
2022-08-05T01:33:36.578Z,26.63
2022-08-05T01:34:33.646Z,26.75
2022-08-05T01:35:51.596Z,26.56
2022-08-05T01:36:33.664Z,26.68
2022-08-05T01:37:33.663Z,26.53
2022-08-05T01:38:33.680Z,26.62
2022-08-05T01:39:34.609Z,26.62
2022-08-05T01:40:33.694Z,26.63
2022-08-05T01:41:33.687Z,26.48
2022-08-05T01:42:33.693Z,26.55
2022-08-05T01:43:33.693Z,26.53
2022-08-05T01:44:34.404Z,26.59
2022-08-05T01:45:34.766Z,26.48
2022-08-05T01:46:43.013Z,26.55
2022-08-05T01:47:39.226Z,26.51
2022-08-05T01:48:33.725Z,26.58
2022-08-05T01:50:01.426Z,26.51
2022-08-05T01:50:33.733Z,26.52
2022-08-05T01:51:33.739Z,26.53
2022-08-05T01:52:33.749Z,26.53
2022-08-05T01:53:55.099Z,26.56
2022-08-05T01:54:33.757Z,26.59
2022-08-05T01:55:36.333Z,26.53
2022-08-05T01:58:09.706Z,26.53
2022-08-05T01:58:12.155Z,26.52
2022-08-05T01:58:44.858Z,26.55
2022-08-05T01:59:33.784Z,26.51
2022-08-05T02:00:33.794Z,26.53
2022-08-05T02:01:40.648Z,26.51
2022-08-05T02:02:33.875Z,26.52
2022-08-05T02:03:34.098Z,26.51
2022-08-05T02:04:33.821Z,26.52
2022-08-05T02:05:36.021Z,26.47
2022-08-05T02:06:38.261Z,26.44
2022-08-05T02:07:33.830Z,26.37
2022-08-05T02:08:33.935Z,26.40
2022-08-05T02:09:33.846Z,26.38
2022-08-05T02:10:33.850Z,26.41
2022-08-05T02:11:34.146Z,26.44
2022-08-05T02:12:33.966Z,26.26
2022-08-05T02:13:36.613Z,26.29
2022-08-05T02:14:33.867Z,26.28
2022-08-05T02:15:34.130Z,26.29
2022-08-05T02:16:33.886Z,26.26
2022-08-05T02:18:32.174Z,26.31
2022-08-05T02:18:34.994Z,26.29
2022-08-05T02:19:34.703Z,26.33
2022-08-05T02:20:33.895Z,26.26
2022-08-05T02:21:38.034Z,26.28
2022-08-05T02:22:33.912Z,26.28
2022-08-05T02:23:33.938Z,26.25
2022-08-05T02:24:33.924Z,26.26
2022-08-05T02:25:33.943Z,26.28
2022-08-05T02:26:33.939Z,26.33
2022-08-05T02:27:58.516Z,26.31
2022-08-05T02:28:38.134Z,26.28
2022-08-05T02:29:59.532Z,26.37
2022-08-05T02:30:34.476Z,26.31
2022-08-05T02:31:34.751Z,26.31
2022-08-05T02:32:33.967Z,26.25
2022-08-05T02:33:38.431Z,26.28
2022-08-05T02:34:33.971Z,26.28
2022-08-05T02:35:38.104Z,26.29
2022-08-05T02:36:33.985Z,26.25
2022-08-05T02:37:33.993Z,26.23
2022-08-05T02:38:35.013Z,26.29
2022-08-05T02:39:34.020Z,26.15
2022-08-05T02:40:34.007Z,26.16
2022-08-05T02:41:42.824Z,26.13
2022-08-05T02:42:36.105Z,26.16
2022-08-05T02:43:34.474Z,26.18
2022-08-05T02:44:34.031Z,26.15
2022-08-05T02:45:52.221Z,26.13
2022-08-05T02:46:34.038Z,26.21
2022-08-05T02:48:07.072Z,26.31
2022-08-05T02:48:34.054Z,26.10
2022-08-05T02:49:36.959Z,26.18
2022-08-05T02:50:34.065Z,26.10
2022-08-05T02:52:04.292Z,26.22
2022-08-05T02:52:34.066Z,26.18
2022-08-05T02:53:39.499Z,26.13
2022-08-05T02:54:36.431Z,26.19
2022-08-05T02:55:54.671Z,26.19
2022-08-05T02:56:34.087Z,26.19
2022-08-05T02:58:11.318Z,26.13
2022-08-05T02:58:34.100Z,26.22
2022-08-05T02:59:34.661Z,26.19
2022-08-05T03:00:34.107Z,26.21
2022-08-05T03:01:34.165Z,26.07
2022-08-05T03:02:34.121Z,26.07
2022-08-05T03:04:03.360Z,26.02
2022-08-05T03:04:34.149Z,26.05
2022-08-05T03:06:56.335Z,25.96
2022-08-05T03:06:56.736Z,26.02
2022-08-05T03:08:01.183Z,26.03
2022-08-05T03:08:34.153Z,26.07
2022-08-05T03:09:37.501Z,25.98
2022-08-05T03:10:34.186Z,25.98
2022-08-05T03:11:55.693Z,25.91
2022-08-05T03:12:34.180Z,25.90
2022-08-05T03:13:51.928Z,25.96
2022-08-05T03:14:34.181Z,25.91
2022-08-05T03:15:34.188Z,25.85
2022-08-05T03:16:35.816Z,25.96
2022-08-05T03:17:34.199Z,25.95
2022-08-05T03:18:34.220Z,25.91
2022-08-05T03:19:36.284Z,25.83
2022-08-05T03:20:34.222Z,25.87
2022-08-05T03:21:41.679Z,25.81
2022-08-05T03:22:34.222Z,25.87
2022-08-05T03:23:34.228Z,25.85
2022-08-05T03:24:34.237Z,25.84
2022-08-05T03:26:04.725Z,25.90
2022-08-05T03:26:34.243Z,25.87
2022-08-05T03:27:57.842Z,25.81
2022-08-05T03:28:34.263Z,25.83
2022-08-05T03:29:44.577Z,25.84
2022-08-05T03:30:34.562Z,25.75
2022-08-05T03:31:56.772Z,25.72
2022-08-05T03:32:34.278Z,25.72
2022-08-05T03:33:51.233Z,25.66
2022-08-05T03:34:34.290Z,25.66
2022-08-05T03:35:41.043Z,25.65
2022-08-05T03:36:34.309Z,25.50
2022-08-05T03:37:46.253Z,25.50
2022-08-05T03:38:37.531Z,25.51
2022-08-05T03:39:47.254Z,25.54
2022-08-05T03:40:34.437Z,25.58
2022-08-05T03:41:38.689Z,25.55
2022-08-05T03:42:41.840Z,25.55
2022-08-05T03:44:08.854Z,25.53
2022-08-05T03:44:37.022Z,25.51
2022-08-05T03:45:58.264Z,25.53
2022-08-05T03:46:34.345Z,25.53
2022-08-05T03:47:35.150Z,25.50
2022-08-05T03:48:35.431Z,25.50
2022-08-05T03:49:51.956Z,25.51
2022-08-05T03:50:34.367Z,25.48
2022-08-05T03:52:36.992Z,25.54
2022-08-05T03:52:37.324Z,25.51
2022-08-05T03:55:51.035Z,25.50
2022-08-05T03:55:51.688Z,25.50
2022-08-05T03:56:09.414Z,25.53
2022-08-05T03:56:35.014Z,25.53
2022-08-05T03:57:42.653Z,25.47
2022-08-05T03:58:34.402Z,25.51
2022-08-05T03:59:47.596Z,25.50
2022-08-05T04:00:34.411Z,25.50
2022-08-05T04:01:34.482Z,25.51
2022-08-05T04:02:38.390Z,25.44
2022-08-05T04:03:34.437Z,25.43
2022-08-05T04:04:49.031Z,25.41
2022-08-05T04:05:34.856Z,25.43
2022-08-05T04:08:30.409Z,25.50
2022-08-05T04:09:06.324Z,25.41
2022-08-05T04:11:10.130Z,25.44
2022-08-05T04:12:24.674Z,25.47
2022-08-05T04:14:18.089Z,25.48
2022-08-05T04:15:15.557Z,25.53
2022-08-05T04:16:14.359Z,25.53
2022-08-05T04:17:14.163Z,25.53
2022-08-05T04:18:22.396Z,25.53
2022-08-05T04:19:14.167Z,25.53
2022-08-05T04:20:14.253Z,25.54
2022-08-05T04:21:14.175Z,25.47
2022-08-05T04:22:14.181Z,25.51
2022-08-05T04:23:15.953Z,25.46
2022-08-05T04:24:19.231Z,25.58
2022-08-05T04:25:14.209Z,25.47
2022-08-05T04:26:14.203Z,25.43
2022-08-05T04:27:14.207Z,25.43
2022-08-05T04:28:14.289Z,25.62
2022-08-05T04:29:14.288Z,25.47
2022-08-05T04:30:14.221Z,25.51
2022-08-05T04:31:14.233Z,25.54
2022-08-05T04:32:14.237Z,25.48
2022-08-05T04:33:14.258Z,25.62
2022-08-05T04:34:19.342Z,25.58
2022-08-05T04:35:19.448Z,25.54
2022-08-05T04:36:38.184Z,25.53
2022-08-05T04:37:14.259Z,25.50
2022-08-05T04:38:15.619Z,25.53
2022-08-05T04:39:14.318Z,25.53
2022-08-05T04:40:14.279Z,25.62
2022-08-05T04:41:14.277Z,25.69
2022-08-05T04:42:14.282Z,25.65
2022-08-05T04:43:16.724Z,25.69
2022-08-05T04:44:14.304Z,25.73
2022-08-05T04:45:22.990Z,25.77
2022-08-05T04:46:14.325Z,25.78
2022-08-05T04:47:18.599Z,25.78
2022-08-05T04:48:16.586Z,25.75
2022-08-05T04:49:14.818Z,25.69
2022-08-05T04:50:14.409Z,25.68
2022-08-05T04:51:14.340Z,25.83
2022-08-05T04:52:14.398Z,25.73
2022-08-05T04:53:14.360Z,25.81
2022-08-05T04:54:14.351Z,25.81
2022-08-05T04:55:15.398Z,25.87
2022-08-05T04:56:34.844Z,25.90
2022-08-05T04:57:14.381Z,25.84
2022-08-05T04:58:14.385Z,25.88
2022-08-05T04:59:21.596Z,25.91
2022-08-05T05:00:14.406Z,25.90
2022-08-05T05:01:14.456Z,25.95
2022-08-05T05:02:37.136Z,25.91
2022-08-05T05:03:14.454Z,25.80
2022-08-05T05:04:14.400Z,25.84
2022-08-05T05:05:26.577Z,25.88
2022-08-05T05:06:38.966Z,25.84
2022-08-05T05:07:29.297Z,25.87
2022-08-05T05:08:30.294Z,25.84
2022-08-05T05:09:17.780Z,25.91
2022-08-05T05:10:14.432Z,25.83
2022-08-05T05:11:15.317Z,25.93
2022-08-05T05:12:14.942Z,25.90
2022-08-05T05:13:14.450Z,25.88
2022-08-05T05:14:16.267Z,25.83
2022-08-05T05:15:17.455Z,25.93
2022-08-05T05:16:15.387Z,25.90
2022-08-05T05:17:14.475Z,25.87
2022-08-05T05:18:14.476Z,25.87
2022-08-05T05:19:19.406Z,25.88
2022-08-05T05:20:14.489Z,25.99
2022-08-05T05:21:14.495Z,25.91
2022-08-05T05:22:22.635Z,25.93
2022-08-05T05:23:19.943Z,25.93
2022-08-05T05:24:14.532Z,25.87
2022-08-05T05:25:16.854Z,25.98
2022-08-05T05:26:14.541Z,25.88
2022-08-05T05:27:14.535Z,25.90
2022-08-05T05:28:14.548Z,25.99
2022-08-05T05:29:14.988Z,25.93
2022-08-05T05:30:15.454Z,25.91
2022-08-05T05:31:14.554Z,25.90
2022-08-05T05:32:15.632Z,25.90
2022-08-05T05:33:17.005Z,25.88
2022-08-05T05:34:15.561Z,25.90
2022-08-05T05:35:18.788Z,25.98
2022-08-05T05:36:14.743Z,26.09
2022-08-05T05:37:14.598Z,25.98
2022-08-05T05:38:14.585Z,26.03
2022-08-05T05:39:14.652Z,26.16
2022-08-05T05:40:14.598Z,26.13
2022-08-05T05:41:16.377Z,26.13
2022-08-05T05:42:14.614Z,26.06
2022-08-05T05:43:14.623Z,26.15
2022-08-05T05:44:36.983Z,26.10
2022-08-05T05:45:14.632Z,26.18
2022-08-05T05:46:17.685Z,26.16
2022-08-05T05:47:21.530Z,26.18
2022-08-05T05:48:16.094Z,26.15
2022-08-05T05:49:22.640Z,26.10
2022-08-05T05:50:16.288Z,26.15
2022-08-05T05:51:15.788Z,26.09
2022-08-05T05:52:28.716Z,26.19
2022-08-05T05:53:21.578Z,26.19
2022-08-05T05:54:14.682Z,26.29
2022-08-05T05:55:14.706Z,26.26
2022-08-05T05:56:14.699Z,26.15
2022-08-05T05:57:19.166Z,26.13
2022-08-05T05:58:14.703Z,26.29
2022-08-05T05:59:14.718Z,26.18
2022-08-05T06:00:14.722Z,26.22
2022-08-05T06:01:15.465Z,26.07
2022-08-05T06:02:14.740Z,26.23
2022-08-05T06:03:39.695Z,26.19
2022-08-05T06:04:14.873Z,26.19
2022-08-05T06:05:16.964Z,26.16
2022-08-05T06:06:14.754Z,26.16
2022-08-05T06:07:14.779Z,26.19
2022-08-05T06:08:14.787Z,26.16
2022-08-05T06:09:17.710Z,26.10
2022-08-05T06:10:14.777Z,26.19
2022-08-05T06:11:14.786Z,26.13
2022-08-05T06:12:14.790Z,26.23
2022-08-05T06:13:14.795Z,26.23
2022-08-05T06:14:14.798Z,26.21
2022-08-05T06:15:23.896Z,26.21
2022-08-05T06:16:28.742Z,26.19
2022-08-05T06:17:24.503Z,26.10
2022-08-05T06:18:14.909Z,26.22
2022-08-05T06:19:14.836Z,26.25
2022-08-05T06:20:21.305Z,26.19
2022-08-05T06:21:18.464Z,26.16
2022-08-05T06:22:14.838Z,26.13
2022-08-05T06:23:14.894Z,26.05
2022-08-05T06:24:14.917Z,26.06
2022-08-05T06:25:25.207Z,25.99
2022-08-05T06:26:21.484Z,25.93
2022-08-05T06:28:08.781Z,25.90
2022-08-05T06:28:21.371Z,25.88
2022-08-05T06:29:25.248Z,25.91
2022-08-05T06:30:17.863Z,25.80
2022-08-05T06:31:18.026Z,25.83
2022-08-05T06:32:20.939Z,25.83
2022-08-05T06:33:18.977Z,25.85
2022-08-05T06:34:14.901Z,25.83
2022-08-05T06:35:21.768Z,25.83
2022-08-05T06:36:14.917Z,25.83
2022-08-05T06:37:14.924Z,25.90
2022-08-05T06:38:14.925Z,26.07
2022-08-05T06:39:14.969Z,26.22
2022-08-05T06:40:18.549Z,26.29
2022-08-05T06:41:14.988Z,26.28
2022-08-05T06:42:14.985Z,26.48
2022-08-05T06:43:57.661Z,26.60
2022-08-05T06:44:14.971Z,26.70
2022-08-05T06:45:21.310Z,26.73
2022-08-05T06:46:14.997Z,26.78
2022-08-05T06:47:29.923Z,26.81
2022-08-05T06:48:50.518Z,26.81
2022-08-05T06:49:15.042Z,26.71
2022-08-05T06:50:17.329Z,26.73
2022-08-05T06:51:25.279Z,26.74
2022-08-05T06:52:37.355Z,26.73
2022-08-05T06:53:27.743Z,26.65
2022-08-05T06:54:18.920Z,26.68
2022-08-05T06:55:15.059Z,26.58
2022-08-05T06:56:25.636Z,26.58
2022-08-05T06:57:57.870Z,26.51
2022-08-05T06:58:29.629Z,26.48
2022-08-05T06:59:15.102Z,26.38
2022-08-05T07:00:15.114Z,26.41
2022-08-05T07:01:15.169Z,26.48
2022-08-05T07:02:15.125Z,26.34
2022-08-05T07:03:15.123Z,26.40
2022-08-05T07:04:15.135Z,26.36
2022-08-05T07:05:18.758Z,26.38
2022-08-05T07:06:15.380Z,26.51
2022-08-05T07:07:15.299Z,26.43
2022-08-05T07:08:15.165Z,26.58
2022-08-05T07:09:15.198Z,26.52
2022-08-05T07:10:16.351Z,26.70
2022-08-05T07:11:15.879Z,26.71
2022-08-05T07:12:15.211Z,26.75
2022-08-05T07:13:15.208Z,26.81
2022-08-05T07:14:20.607Z,26.89
2022-08-05T07:15:34.091Z,26.90
2022-08-05T07:17:56.442Z,27.12
2022-08-05T07:17:59.255Z,27.30
2022-08-05T07:18:26.992Z,27.48
2022-08-05T07:19:16.109Z,27.49
2022-08-05T07:20:33.480Z,27.45
2022-08-05T07:21:15.271Z,27.54
2022-08-05T07:22:15.882Z,27.44
2022-08-05T07:23:26.051Z,27.33
2022-08-05T07:24:15.301Z,27.26
2022-08-05T07:25:54.458Z,27.18
2022-08-05T07:26:18.396Z,27.15
2022-08-05T07:27:15.338Z,27.00
2022-08-05T07:28:17.170Z,27.02
2022-08-05T07:29:15.348Z,27.00
2022-08-05T07:30:24.043Z,26.93
2022-08-05T07:31:15.365Z,26.93
2022-08-05T07:32:15.372Z,26.90
2022-08-05T07:33:17.081Z,26.81
2022-08-05T07:34:15.457Z,26.81
2022-08-05T07:36:01.433Z,26.75
2022-08-05T07:36:20.100Z,26.66
2022-08-05T07:37:15.441Z,26.70
2022-08-05T07:38:32.122Z,26.80
2022-08-05T07:39:24.355Z,26.73
2022-08-05T07:40:31.785Z,26.68
2022-08-05T07:42:08.121Z,26.59
2022-08-05T07:42:16.316Z,26.59
2022-08-05T07:43:20.734Z,26.55
2022-08-05T07:44:19.392Z,26.58
2022-08-05T07:45:15.484Z,26.51
2022-08-05T07:46:24.475Z,26.51
2022-08-05T07:47:15.490Z,26.41
2022-08-05T07:48:15.507Z,26.38
2022-08-05T07:49:15.506Z,26.48
2022-08-05T07:50:16.638Z,26.40
2022-08-05T07:51:23.044Z,26.48
2022-08-05T07:52:15.524Z,26.38
2022-08-05T07:53:15.532Z,26.40
2022-08-05T07:54:15.542Z,26.38
2022-08-05T07:55:15.926Z,26.29
2022-08-05T07:57:00.793Z,26.31
2022-08-05T07:57:42.065Z,26.34
2022-08-05T07:58:17.807Z,26.18
2022-08-05T07:59:15.573Z,26.18
2022-08-05T08:00:15.578Z,26.15
2022-08-05T08:01:15.689Z,26.31
2022-08-05T08:02:17.643Z,26.15
2022-08-05T08:03:16.043Z,26.19
2022-08-05T08:04:15.790Z,26.10
2022-08-05T08:05:15.610Z,26.21
2022-08-05T08:06:15.635Z,26.19
2022-08-05T08:07:15.666Z,26.09
2022-08-05T08:08:15.627Z,26.06
2022-08-05T08:09:15.635Z,26.09
2022-08-05T08:10:15.637Z,26.10
2022-08-05T08:11:16.090Z,26.02
2022-08-05T08:12:35.134Z,26.02
2022-08-05T08:13:15.657Z,26.05
2022-08-05T08:14:20.448Z,25.99
2022-08-05T08:15:16.190Z,26.00
2022-08-05T08:16:35.016Z,25.99
2022-08-05T08:17:16.021Z,26.00
2022-08-05T08:18:15.685Z,25.95
2022-08-05T08:20:00.514Z,25.99
2022-08-05T08:20:43.243Z,26.02
2022-08-05T08:21:17.473Z,25.98
2022-08-05T08:22:15.843Z,25.95
2022-08-05T08:24:01.654Z,26.06
2022-08-05T08:24:15.721Z,25.95
2022-08-05T08:25:17.802Z,26.00
2022-08-05T08:26:15.733Z,26.05
2022-08-05T08:27:16.731Z,26.07
2022-08-05T08:28:18.173Z,26.09
2022-08-05T08:30:03.738Z,26.06
2022-08-05T08:30:29.448Z,26.10
2022-08-05T08:31:17.493Z,26.15
2022-08-05T08:32:15.817Z,26.19
2022-08-05T08:33:15.775Z,26.16
2022-08-05T08:34:15.787Z,26.19
2022-08-05T08:35:15.791Z,26.18
2022-08-05T08:36:37.510Z,26.16
2022-08-05T08:37:18.749Z,26.21
2022-08-05T08:38:16.385Z,26.15
2022-08-05T08:39:16.531Z,25.99
2022-08-05T08:40:15.821Z,26.07
2022-08-05T08:41:15.827Z,26.00
2022-08-05T08:42:34.043Z,25.99
2022-08-05T08:44:56.398Z,26.06
2022-08-05T08:45:17.053Z,25.98
2022-08-05T08:45:22.228Z,26.00
2022-08-05T08:46:16.310Z,25.96
2022-08-05T08:47:47.651Z,25.98
2022-08-05T08:48:22.372Z,25.93
2022-08-05T08:50:03.906Z,25.96
2022-08-05T08:50:31.634Z,25.90
2022-08-05T08:51:54.627Z,25.90
2022-08-05T08:52:15.878Z,25.84
2022-08-05T08:53:15.888Z,25.84
2022-08-05T08:54:15.885Z,25.85
2022-08-05T08:55:19.344Z,25.85
2022-08-05T08:56:15.896Z,25.80
2022-08-05T08:57:15.931Z,25.81
2022-08-05T08:58:15.912Z,25.88
2022-08-05T08:59:19.585Z,25.80
2022-08-05T09:00:15.919Z,25.84
2022-08-05T09:01:16.860Z,25.90
2022-08-05T09:02:24.170Z,25.93
2022-08-05T09:03:19.256Z,25.93
2022-08-05T09:04:15.945Z,25.96
2022-08-05T09:05:18.214Z,25.93
2022-08-05T09:06:21.078Z,25.90
2022-08-05T09:07:19.581Z,25.87
2022-08-05T09:08:15.960Z,25.90
2022-08-05T09:09:15.960Z,25.98
2022-08-05T09:10:16.076Z,25.93
2022-08-05T09:11:16.123Z,25.99
2022-08-05T09:12:20.469Z,25.87
2022-08-05T09:13:15.987Z,25.88
2022-08-05T09:14:56.816Z,25.93
2022-08-05T09:15:15.999Z,25.87
2022-08-05T09:16:16.936Z,25.84
2022-08-05T09:17:40.989Z,25.85
2022-08-05T09:18:16.022Z,25.83
2022-08-05T09:19:16.020Z,25.83
2022-08-05T09:20:36.413Z,25.85
2022-08-05T09:21:21.205Z,25.81
2022-08-05T09:22:31.137Z,25.83
2022-08-05T09:23:18.953Z,25.87
2022-08-05T09:24:16.046Z,25.87
2022-08-05T09:25:23.970Z,25.90
2022-08-05T09:26:16.062Z,25.93
2022-08-05T09:27:18.758Z,25.84
2022-08-05T09:28:16.089Z,25.85
2022-08-05T09:29:18.720Z,25.80
2022-08-05T09:30:16.489Z,25.83
2022-08-05T09:31:22.832Z,25.95
2022-08-05T09:32:40.852Z,25.87
2022-08-05T09:33:17.235Z,25.90
2022-08-05T09:34:16.097Z,25.90
2022-08-05T09:35:26.757Z,25.99
2022-08-05T09:36:16.445Z,25.99
2022-08-05T09:37:16.832Z,25.90
2022-08-05T09:38:18.684Z,25.93
2022-08-05T09:39:18.254Z,25.99
2022-08-05T09:40:16.227Z,25.99
2022-08-05T09:41:16.315Z,25.91
2022-08-05T09:42:23.271Z,25.98
2022-08-05T09:43:16.171Z,26.00
2022-08-05T09:44:16.158Z,25.98
2022-08-05T09:46:04.525Z,26.00
2022-08-05T09:46:16.167Z,26.00
2022-08-05T09:47:16.177Z,26.07
2022-08-05T09:48:16.177Z,26.09
2022-08-05T09:49:19.188Z,26.06
2022-08-05T09:50:18.272Z,26.07
2022-08-05T09:51:16.193Z,26.05
2022-08-05T09:52:16.249Z,26.02
2022-08-05T09:53:26.184Z,25.95
2022-08-05T09:54:16.210Z,25.99
2022-08-05T09:55:57.130Z,25.85
2022-08-05T09:56:16.226Z,25.90
2022-08-05T09:57:23.544Z,25.90
2022-08-05T09:58:16.235Z,25.90
2022-08-05T09:59:17.136Z,25.88
2022-08-05T10:00:16.241Z,25.91
2022-08-05T10:01:31.493Z,25.91
2022-08-05T10:02:16.386Z,25.90
2022-08-05T10:03:16.280Z,25.98
2022-08-05T10:04:17.427Z,25.91
2022-08-05T10:05:16.315Z,25.90
2022-08-05T10:06:16.273Z,25.93
2022-08-05T10:07:31.848Z,25.90
2022-08-05T10:08:37.607Z,25.87
2022-08-05T10:09:25.310Z,25.83
2022-08-05T10:10:17.928Z,25.85
2022-08-05T10:11:16.373Z,25.80
2022-08-05T10:12:18.515Z,25.84
2022-08-05T10:13:16.308Z,25.83
2022-08-05T10:14:16.323Z,25.78
2022-08-05T10:15:17.318Z,25.78
2022-08-05T10:16:16.326Z,25.78
2022-08-05T10:17:37.892Z,25.68
2022-08-05T10:18:16.671Z,25.72
2022-08-05T10:19:16.370Z,25.73
2022-08-05T10:20:16.350Z,25.88
2022-08-05T10:21:16.604Z,25.87
2022-08-05T10:22:29.689Z,25.90
2022-08-05T10:23:34.048Z,25.95
2022-08-05T10:24:16.380Z,25.91
2022-08-05T10:25:16.370Z,25.95
2022-08-05T10:26:16.380Z,25.90
2022-08-05T10:27:16.712Z,26.02
2022-08-05T10:28:19.380Z,25.95
2022-08-05T10:29:23.365Z,26.09
2022-08-05T10:31:20.881Z,26.07
2022-08-05T10:32:49.208Z,26.10
2022-08-05T10:32:51.664Z,26.06
2022-08-05T10:33:16.555Z,26.03
2022-08-05T10:34:16.811Z,26.06
2022-08-05T10:35:16.435Z,26.15
2022-08-05T10:36:16.448Z,26.10
2022-08-05T10:37:16.454Z,26.05
2022-08-05T10:38:16.459Z,26.06
2022-08-05T10:39:24.791Z,26.09
2022-08-05T10:40:17.845Z,26.15
2022-08-05T10:41:23.661Z,26.07
2022-08-05T10:42:18.579Z,26.05
2022-08-05T10:43:16.475Z,26.00
2022-08-05T10:44:16.488Z,26.06
2022-08-05T10:45:23.537Z,26.15
2022-08-05T10:46:16.511Z,25.93
2022-08-05T10:47:26.271Z,26.02
2022-08-05T10:48:29.397Z,25.90
2022-08-05T10:49:17.118Z,25.95
2022-08-05T10:50:32.341Z,25.95
2022-08-05T10:51:22.394Z,25.98
2022-08-05T10:52:16.540Z,25.99
2022-08-05T10:53:17.505Z,25.95
2022-08-05T10:54:28.301Z,25.98
2022-08-05T10:55:18.500Z,25.87
2022-08-05T10:56:25.557Z,25.90
2022-08-05T10:57:16.562Z,25.93
2022-08-05T10:58:16.580Z,25.99
2022-08-05T11:00:01.184Z,26.00
2022-08-05T11:00:20.399Z,26.02
2022-08-05T11:01:16.576Z,26.00
2022-08-05T11:02:37.586Z,26.05
2022-08-05T11:03:23.117Z,25.95
2022-08-05T11:04:16.588Z,26.00
2022-08-05T11:05:18.109Z,26.03
2022-08-05T11:06:17.659Z,25.93
2022-08-05T11:07:16.600Z,25.95
2022-08-05T11:08:37.374Z,26.06
2022-08-05T11:09:17.264Z,26.00
2022-08-05T11:10:16.635Z,26.03
2022-08-05T11:11:16.969Z,26.07
2022-08-05T11:12:16.696Z,26.07
2022-08-05T11:13:16.646Z,26.18
2022-08-05T11:14:16.646Z,26.10
2022-08-05T11:15:20.014Z,26.16
2022-08-05T11:16:16.655Z,26.16
2022-08-05T11:18:00.019Z,26.19
2022-08-05T11:18:16.826Z,26.19
2022-08-05T11:20:16.864Z,26.18
2022-08-05T11:20:18.556Z,26.26
2022-08-05T11:21:16.685Z,26.28
2022-08-05T11:22:16.702Z,26.28
2022-08-05T11:23:16.700Z,26.33
2022-08-05T11:24:30.681Z,26.28
2022-08-05T11:26:04.181Z,26.25
2022-08-05T11:26:16.711Z,26.40
2022-08-05T11:27:16.741Z,26.33
2022-08-05T11:28:17.223Z,26.26
2022-08-05T11:29:16.741Z,26.36
2022-08-05T11:30:16.729Z,26.28
2022-08-05T11:31:54.040Z,26.40
2022-08-05T11:32:16.759Z,26.40
2022-08-05T11:33:21.339Z,26.38
2022-08-05T11:34:22.542Z,26.23
2022-08-05T11:35:16.770Z,26.29
2022-08-05T11:36:16.806Z,26.38
2022-08-05T11:38:29.639Z,26.36
2022-08-05T11:38:30.246Z,26.40
2022-08-05T11:39:16.831Z,26.40
2022-08-05T11:40:18.360Z,26.48
2022-08-05T11:41:54.435Z,26.43
2022-08-05T11:42:18.469Z,26.45
2022-08-05T11:43:16.888Z,26.48
2022-08-05T11:44:21.577Z,26.53
2022-08-05T11:46:14.594Z,26.56
2022-08-05T11:46:32.585Z,26.55
2022-08-05T11:47:21.958Z,26.59
2022-08-05T11:48:16.843Z,26.59
2022-08-05T11:49:16.861Z,26.56
2022-08-05T11:50:16.849Z,26.65
2022-08-05T11:51:44.002Z,26.70
2022-08-05T11:52:16.930Z,26.70
2022-08-05T11:53:16.888Z,26.63
2022-08-05T11:54:16.896Z,26.71
2022-08-05T11:55:16.925Z,26.75
2022-08-05T11:56:16.884Z,26.81
2022-08-05T11:57:25.217Z,26.78
2022-08-05T11:58:17.453Z,26.83
2022-08-05T11:59:16.909Z,26.80
2022-08-05T12:00:16.921Z,26.80
2022-08-05T12:01:19.066Z,26.95
2022-08-05T12:02:29.825Z,26.90
2022-08-05T12:03:23.784Z,26.97
2022-08-05T12:04:16.954Z,27.07
2022-08-05T12:05:18.292Z,27.03
2022-08-05T12:06:17.028Z,27.07
2022-08-05T12:07:17.022Z,27.05
2022-08-05T12:08:18.176Z,27.03
2022-08-05T12:09:19.921Z,27.07
2022-08-05T12:10:16.994Z,27.08
2022-08-05T12:11:17.281Z,27.07
2022-08-05T12:12:16.991Z,27.11
2022-08-05T12:13:18.767Z,27.08
2022-08-05T12:14:17.018Z,27.14
2022-08-05T12:15:17.140Z,27.17
2022-08-05T12:16:17.018Z,27.17
2022-08-05T12:18:02.693Z,27.21
2022-08-05T12:18:17.324Z,27.18
2022-08-05T12:20:25.838Z,27.25
2022-08-05T12:20:26.605Z,27.29
2022-08-05T12:21:17.360Z,27.30
2022-08-05T12:22:17.995Z,27.36
2022-08-05T12:23:17.061Z,27.37
2022-08-05T12:24:17.236Z,27.42
2022-08-05T12:25:17.070Z,27.42
2022-08-05T12:26:17.106Z,27.37
2022-08-05T12:27:21.573Z,27.44
2022-08-05T12:28:17.094Z,27.48
2022-08-05T12:29:17.904Z,27.40
2022-08-05T12:30:17.109Z,27.52
2022-08-05T12:31:23.675Z,27.47
2022-08-05T12:32:17.134Z,27.42
2022-08-05T12:33:36.688Z,27.49
2022-08-05T12:34:21.492Z,27.52
2022-08-05T12:35:21.919Z,27.40
2022-08-05T12:36:17.186Z,27.45
2022-08-05T12:37:21.785Z,27.52
2022-08-05T12:38:17.159Z,27.44
2022-08-05T12:39:17.253Z,27.54
2022-08-05T12:40:26.579Z,27.55
2022-08-05T12:41:17.182Z,27.51
2022-08-05T12:42:17.241Z,27.47
2022-08-05T12:43:20.817Z,27.39
2022-08-05T12:44:32.653Z,27.49
2022-08-05T12:45:17.222Z,27.48
2022-08-05T12:46:17.217Z,27.52
2022-08-05T12:47:17.865Z,27.54
2022-08-05T12:48:27.391Z,27.51
2022-08-05T12:49:17.254Z,27.51
2022-08-05T12:50:17.250Z,27.52
2022-08-05T12:52:10.451Z,27.60
2022-08-05T12:52:22.856Z,27.65
2022-08-05T12:53:17.288Z,27.58
2022-08-05T12:54:23.630Z,27.63
2022-08-05T12:55:17.274Z,27.67
2022-08-05T12:56:34.888Z,27.74
2022-08-05T12:57:17.288Z,27.74
2022-08-05T12:58:38.717Z,27.75
2022-08-05T12:59:21.082Z,27.68
2022-08-05T13:02:00.872Z,27.80
2022-08-05T13:02:01.085Z,27.86
2022-08-05T13:02:17.369Z,27.85
2022-08-05T13:03:17.426Z,27.83
2022-08-05T13:04:20.999Z,27.83
2022-08-05T13:05:17.357Z,27.77
2022-08-05T13:06:17.911Z,27.86
2022-08-05T13:07:17.462Z,27.80
2022-08-05T13:08:17.365Z,27.82
2022-08-05T13:09:28.227Z,27.83
2022-08-05T13:10:20.272Z,27.77
2022-08-05T13:11:17.409Z,27.71
2022-08-05T13:12:17.395Z,27.77
2022-08-05T13:14:05.273Z,27.74
2022-08-05T13:14:19.588Z,27.70
2022-08-05T13:15:24.076Z,27.74